createdAt,value
2023-02-05T00:00:37.495Z,6.07
2023-02-05T00:02:40.195Z,6.17
2023-02-05T00:04:43.018Z,6.43
2023-02-05T00:06:46.010Z,6.10
2023-02-05T00:08:48.829Z,4.93
2023-02-05T00:10:54.700Z,5.40
2023-02-05T00:12:57.408Z,5.70
2023-02-05T00:15:00.475Z,5.50
2023-02-05T00:17:04.795Z,5.13
2023-02-05T00:19:07.643Z,5.47
2023-02-05T00:21:11.026Z,5.87
2023-02-05T00:23:13.777Z,5.50
2023-02-05T00:25:16.616Z,5.50
2023-02-05T00:27:19.312Z,6.00
2023-02-05T00:29:22.018Z,5.10
2023-02-05T00:31:25.645Z,5.77
2023-02-05T00:33:29.747Z,5.70
2023-02-05T00:35:32.876Z,5.53
2023-02-05T00:37:35.771Z,5.97
2023-02-05T00:39:38.659Z,5.63
2023-02-05T00:41:41.517Z,6.27
2023-02-05T00:43:44.720Z,5.57
2023-02-05T00:45:47.662Z,5.70
2023-02-05T00:47:50.409Z,6.00
2023-02-05T00:49:54.481Z,5.70
2023-02-05T00:51:57.180Z,6.47
2023-02-05T00:53:59.897Z,5.80
2023-02-05T00:56:02.673Z,6.30
2023-02-05T00:58:05.453Z,6.07
2023-02-05T01:00:09.319Z,6.00
2023-02-05T01:02:12.037Z,5.87
2023-02-05T01:04:14.797Z,5.90
2023-02-05T01:06:18.820Z,6.67
2023-02-05T01:08:21.546Z,6.27
2023-02-05T01:10:24.714Z,6.40
2023-02-05T01:12:27.480Z,7.00
2023-02-05T01:14:30.240Z,6.50
2023-02-05T01:16:33.014Z,6.47
2023-02-05T01:18:35.754Z,6.90
2023-02-05T01:20:40.907Z,7.17
2023-02-05T01:22:44.964Z,6.20
2023-02-05T01:24:47.735Z,7.20
2023-02-05T01:26:50.483Z,6.93
2023-02-05T01:28:53.180Z,7.23
2023-02-05T01:30:55.966Z,7.17
2023-02-05T01:32:58.758Z,6.80
2023-02-05T01:35:01.495Z,7.17
2023-02-05T01:37:04.398Z,7.10
2023-02-05T01:39:08.443Z,6.67
2023-02-05T01:41:13.244Z,7.43
2023-02-05T01:43:17.229Z,7.03
2023-02-05T01:45:50.747Z,7.13
2023-02-05T01:47:55.520Z,7.23
2023-02-05T01:49:59.094Z,7.20
2023-02-05T01:52:06.637Z,7.97
2023-02-05T01:54:10.852Z,7.33
2023-02-05T01:56:18.500Z,7.03
2023-02-05T01:58:21.442Z,7.60
2023-02-05T02:00:24.535Z,6.70
2023-02-05T02:02:29.764Z,7.83
2023-02-05T02:04:38.595Z,7.60
2023-02-05T02:06:41.343Z,7.23
2023-02-05T02:08:44.048Z,7.50
2023-02-05T02:10:49.669Z,7.40
2023-02-05T02:12:54.933Z,8.40
2023-02-05T02:15:01.091Z,7.87
2023-02-05T02:17:06.188Z,8.10
2023-02-05T02:19:15.638Z,8.60
2023-02-05T02:21:54.201Z,7.73
2023-02-05T02:24:23.157Z,8.00
2023-02-05T02:26:43.587Z,8.00
2023-02-05T02:28:52.595Z,7.10
2023-02-05T02:31:03.636Z,6.80
2023-02-05T02:33:12.768Z,7.10
2023-02-05T02:35:22.037Z,7.27
2023-02-05T02:37:28.324Z,7.33
2023-02-05T02:39:36.666Z,7.00
2023-02-05T02:41:47.318Z,6.87
2023-02-05T02:43:53.335Z,6.27
2023-02-05T02:46:02.348Z,6.73
2023-02-05T02:48:07.404Z,6.00
2023-02-05T02:50:15.504Z,5.90
2023-02-05T02:52:21.900Z,6.07
2023-02-05T02:54:27.706Z,7.00
2023-02-05T02:56:31.978Z,6.00
2023-02-05T02:58:40.163Z,6.03
2023-02-05T03:00:45.888Z,5.80
2023-02-05T03:02:51.015Z,5.57
2023-02-05T03:04:59.415Z,5.97
2023-02-05T03:07:06.955Z,5.83
2023-02-05T03:09:14.142Z,5.60
2023-02-05T03:11:17.233Z,5.77
2023-02-05T03:13:20.541Z,5.53
2023-02-05T03:15:23.454Z,5.20
2023-02-05T03:17:28.631Z,4.83
2023-02-05T03:19:32.083Z,5.13
2023-02-05T03:21:41.267Z,5.07
2023-02-05T03:23:44.368Z,4.50
2023-02-05T03:25:47.689Z,3.80
2023-02-05T03:27:53.831Z,4.57
2023-02-05T03:29:56.723Z,4.90
2023-02-05T03:32:09.762Z,4.43
2023-02-05T03:34:28.555Z,4.03
2023-02-05T03:36:40.517Z,4.53
2023-02-05T03:38:55.437Z,4.20
2023-02-05T03:41:03.952Z,3.93
2023-02-05T03:43:14.056Z,4.40
2023-02-05T03:45:34.276Z,4.30
2023-02-05T03:47:46.101Z,4.30
2023-02-05T03:49:58.927Z,4.00
2023-02-05T03:52:08.055Z,4.30
2023-02-05T03:54:17.576Z,4.07
2023-02-05T03:56:25.222Z,3.97
2023-02-05T03:58:31.756Z,3.53
2023-02-05T04:00:35.417Z,3.73
2023-02-05T04:02:38.388Z,4.10
2023-02-05T04:04:41.330Z,3.87
2023-02-05T04:06:54.210Z,3.80
2023-02-05T04:08:56.891Z,4.00
2023-02-05T04:10:59.594Z,3.60
2023-02-05T04:13:02.253Z,3.63
2023-02-05T04:15:07.312Z,4.20
2023-02-05T04:17:11.628Z,3.67
2023-02-05T04:19:14.380Z,3.67
2023-02-05T04:21:17.143Z,4.10
2023-02-05T04:23:21.155Z,3.30
2023-02-05T04:25:23.939Z,3.70
2023-02-05T04:27:26.659Z,3.87
2023-02-05T04:29:29.495Z,3.60
2023-02-05T04:31:32.245Z,3.40
2023-02-05T04:33:35.054Z,3.80
2023-02-05T04:35:37.780Z,3.70
2023-02-05T04:37:40.456Z,3.60
2023-02-05T04:39:44.467Z,3.90
2023-02-05T04:41:47.199Z,3.50
2023-02-05T04:43:49.899Z,4.17
2023-02-05T04:45:52.708Z,4.17
2023-02-05T04:47:56.399Z,3.83
2023-02-05T04:49:59.400Z,3.60
2023-02-05T04:52:02.186Z,4.00
2023-02-05T04:54:05.083Z,3.93
2023-02-05T04:56:11.449Z,3.80
2023-02-05T04:58:14.138Z,3.60
2023-02-05T05:00:17.362Z,3.70
2023-02-05T05:02:20.112Z,4.27
2023-02-05T05:04:22.845Z,3.73
2023-02-05T05:06:26.528Z,3.40
2023-02-05T05:08:29.863Z,3.47
2023-02-05T05:10:32.560Z,3.83
2023-02-05T05:12:37.026Z,3.47
2023-02-05T05:14:39.844Z,3.30
2023-02-05T05:16:42.538Z,3.53
2023-02-05T05:18:45.238Z,3.50
2023-02-05T05:20:47.951Z,4.20
2023-02-05T05:22:50.634Z,3.73
2023-02-05T05:24:53.468Z,3.60
2023-02-05T05:26:56.155Z,3.43
2023-02-05T05:29:00.518Z,3.43
2023-02-05T05:31:08.367Z,3.33
2023-02-05T05:33:11.210Z,3.60
2023-02-05T05:35:13.884Z,4.00
2023-02-05T05:37:16.586Z,4.03
2023-02-05T05:39:37.141Z,3.87
2023-02-05T05:41:57.421Z,3.60
2023-02-05T05:44:01.439Z,3.80
2023-02-05T05:46:04.848Z,3.93
2023-02-05T05:48:09.028Z,4.00
2023-02-05T05:50:11.752Z,3.87
2023-02-05T05:52:15.501Z,3.43
2023-02-05T05:54:18.213Z,4.00
2023-02-05T05:56:21.076Z,3.80
2023-02-05T05:58:23.840Z,3.83
2023-02-05T06:00:27.875Z,4.27
2023-02-05T06:02:30.601Z,3.60
2023-02-05T06:04:33.374Z,3.77
2023-02-05T06:06:37.994Z,3.87
2023-02-05T06:08:41.005Z,3.80
2023-02-05T06:10:43.735Z,4.50
2023-02-05T06:12:46.653Z,4.00
2023-02-05T06:14:49.374Z,3.70
2023-02-05T06:16:55.183Z,4.10
2023-02-05T06:18:58.093Z,3.77
2023-02-05T06:21:02.232Z,4.00
2023-02-05T06:23:04.944Z,4.47
2023-02-05T06:25:08.456Z,4.00
2023-02-05T06:27:11.135Z,6.37
2023-02-05T06:29:13.916Z,4.93
2023-02-05T06:31:17.411Z,6.03
2023-02-05T06:33:21.512Z,10.37
2023-02-05T06:35:24.543Z,5.23
2023-02-05T06:37:46.299Z,5.17
2023-02-05T06:39:50.011Z,4.70
2023-02-05T06:41:52.718Z,4.20
2023-02-05T06:43:55.414Z,4.27
2023-02-05T06:45:58.083Z,4.10
2023-02-05T06:48:00.801Z,3.87
2023-02-05T06:50:05.558Z,3.97
2023-02-05T06:52:08.240Z,3.77
2023-02-05T06:54:10.945Z,4.23
2023-02-05T06:56:13.750Z,3.87
2023-02-05T06:58:16.439Z,17.37
2023-02-05T07:00:19.595Z,29.50
2023-02-05T07:02:22.318Z,18.00
2023-02-05T07:04:26.743Z,11.70
2023-02-05T07:06:30.919Z,6.93
2023-02-05T07:08:33.771Z,5.90
2023-02-05T07:10:36.554Z,5.50
2023-02-05T07:12:39.340Z,4.87
2023-02-05T07:14:43.091Z,4.57
2023-02-05T07:16:45.878Z,3.97
2023-02-05T07:18:48.639Z,6.23
2023-02-05T07:20:51.356Z,6.13
2023-02-05T07:22:55.429Z,5.43
2023-02-05T07:24:58.759Z,5.80
2023-02-05T07:27:01.534Z,5.10
2023-02-05T07:29:04.278Z,5.20
2023-02-05T07:31:08.690Z,5.20
2023-02-05T07:33:11.445Z,5.07
2023-02-05T07:35:14.143Z,4.90
2023-02-05T07:37:16.892Z,5.07
2023-02-05T07:39:21.369Z,5.63
2023-02-05T07:41:24.123Z,5.67
2023-02-05T07:43:27.128Z,5.93
2023-02-05T07:45:29.863Z,4.73
2023-02-05T07:47:32.578Z,3.93
2023-02-05T07:49:35.906Z,4.20
2023-02-05T07:51:38.730Z,3.93
2023-02-05T07:53:41.450Z,3.80
2023-02-05T07:55:45.558Z,4.20
2023-02-05T07:57:48.298Z,4.30
2023-02-05T07:59:51.010Z,4.60
2023-02-05T08:01:53.793Z,4.50
2023-02-05T08:03:56.634Z,4.70
2023-02-05T08:05:59.654Z,4.83
2023-02-05T08:08:02.983Z,5.03
2023-02-05T08:10:06.566Z,5.13
2023-02-05T08:12:10.657Z,5.80
2023-02-05T08:14:13.490Z,5.83
2023-02-05T08:16:16.563Z,6.07
2023-02-05T08:18:19.299Z,5.50
2023-02-05T08:20:22.292Z,5.50
2023-02-05T08:22:25.004Z,5.60
2023-02-05T08:24:27.766Z,6.73
2023-02-05T08:26:30.453Z,8.43
2023-02-05T08:28:34.512Z,10.13
2023-02-05T08:30:37.524Z,14.47
2023-02-05T08:32:40.269Z,14.97
2023-02-05T08:34:42.956Z,12.00
2023-02-05T08:36:45.670Z,11.20
2023-02-05T08:38:48.431Z,9.40
2023-02-05T08:40:51.118Z,10.00
2023-02-05T08:42:57.085Z,7.70
2023-02-05T08:45:01.254Z,5.70
2023-02-05T08:47:03.967Z,4.83
2023-02-05T08:49:06.827Z,4.67
2023-02-05T08:51:10.907Z,4.90
2023-02-05T08:53:13.600Z,4.70
2023-02-05T08:55:18.125Z,5.40
2023-02-05T08:57:20.832Z,4.37
2023-02-05T08:59:23.552Z,4.60
2023-02-05T09:01:27.698Z,4.50
2023-02-05T09:03:31.103Z,4.57
2023-02-05T09:05:34.118Z,4.50
2023-02-05T09:07:37.441Z,4.67
2023-02-05T09:09:40.298Z,4.57
2023-02-05T09:11:43.484Z,4.60
2023-02-05T09:13:46.210Z,4.87
2023-02-05T09:15:49.264Z,5.50
2023-02-05T09:17:53.275Z,5.00
2023-02-05T09:19:56.049Z,4.83
2023-02-05T09:21:59.130Z,4.83
2023-02-05T09:24:01.862Z,5.20
2023-02-05T09:26:05.170Z,4.83
2023-02-05T09:28:09.488Z,4.80
2023-02-05T09:30:13.704Z,5.13
2023-02-05T09:32:16.442Z,5.20
2023-02-05T09:34:20.466Z,5.37
2023-02-05T09:36:24.370Z,5.80
2023-02-05T09:38:27.041Z,6.80
2023-02-05T09:40:33.569Z,5.43
2023-02-05T09:42:42.362Z,4.70
2023-02-05T09:44:57.312Z,5.63
2023-02-05T09:47:06.592Z,5.30
2023-02-05T09:49:17.923Z,5.80
2023-02-05T09:51:26.622Z,5.63
2023-02-05T09:53:36.429Z,6.63
2023-02-05T09:55:44.886Z,6.53
2023-02-05T09:57:47.986Z,6.73
2023-02-05T09:59:50.706Z,6.83
2023-02-05T10:01:57.240Z,6.00
2023-02-05T10:04:03.149Z,5.70
2023-02-05T10:06:29.807Z,6.67
2023-02-05T10:08:41.986Z,5.70
2023-02-05T10:10:47.165Z,5.77
2023-02-05T10:13:15.302Z,5.63
2023-02-05T10:15:38.435Z,5.83
2023-02-05T10:17:53.629Z,6.20
2023-02-05T10:20:14.083Z,6.27
2023-02-05T10:22:27.090Z,6.23
2023-02-05T10:25:17.733Z,6.10
2023-02-05T10:27:22.682Z,6.03
2023-02-05T10:29:36.371Z,5.90
2023-02-05T10:31:44.469Z,5.90
2023-02-05T10:33:50.622Z,6.47
2023-02-05T10:36:04.134Z,6.23
2023-02-05T10:38:15.119Z,6.40
2023-02-05T10:40:21.267Z,6.17
2023-02-05T10:42:29.321Z,6.00
2023-02-05T10:44:35.160Z,6.70
2023-02-05T10:46:40.483Z,7.80
2023-02-05T10:48:46.972Z,7.47
2023-02-05T10:50:55.710Z,6.93
2023-02-05T10:52:58.420Z,6.67
2023-02-05T10:55:02.895Z,6.53
2023-02-05T10:57:05.898Z,6.10
2023-02-05T10:59:15.196Z,6.27
2023-02-05T11:01:20.117Z,6.10
2023-02-05T11:03:23.727Z,5.80
2023-02-05T11:05:32.740Z,6.07
2023-02-05T11:07:40.584Z,6.63
2023-02-05T11:09:44.463Z,6.33
2023-02-05T11:11:52.937Z,6.43
2023-02-05T11:13:58.596Z,5.87
2023-02-05T11:16:04.926Z,6.33
2023-02-05T11:18:22.530Z,6.13
2023-02-05T11:20:33.846Z,6.17
2023-02-05T11:22:39.454Z,6.10
2023-02-05T11:24:42.482Z,6.03
2023-02-05T11:26:45.219Z,5.90
2023-02-05T11:28:49.460Z,6.27
2023-02-05T11:30:52.983Z,5.73
2023-02-05T11:32:56.006Z,5.57
2023-02-05T11:35:14.119Z,5.97
2023-02-05T11:37:19.558Z,6.10
2023-02-05T11:39:34.120Z,6.33
2023-02-05T11:41:48.194Z,6.47
2023-02-05T11:43:53.725Z,5.67
2023-02-05T11:45:59.005Z,5.90
2023-02-05T11:48:05.053Z,6.30
2023-02-05T11:50:22.219Z,5.83
2023-02-05T11:52:28.840Z,5.93
2023-02-05T11:54:33.760Z,5.70
2023-02-05T11:56:36.487Z,6.97
2023-02-05T11:58:39.440Z,5.97
2023-02-05T12:00:52.175Z,5.47
2023-02-05T12:03:05.268Z,6.20
2023-02-05T12:05:18.106Z,5.80
2023-02-05T12:07:22.777Z,6.50
2023-02-05T12:09:27.371Z,6.13
2023-02-05T12:11:55.658Z,7.37
2023-02-05T12:14:10.462Z,6.97
2023-02-05T12:16:27.704Z,6.90
2023-02-05T12:18:45.791Z,7.40
2023-02-05T12:21:00.088Z,7.07
2023-02-05T12:23:26.874Z,7.10
2023-02-05T12:25:42.949Z,7.87
2023-02-05T12:28:02.118Z,7.73
2023-02-05T12:30:21.202Z,7.50
2023-02-05T12:32:34.507Z,7.40
2023-02-05T12:34:46.589Z,7.50
2023-02-05T12:37:07.005Z,7.13
2023-02-05T12:39:20.855Z,7.70
2023-02-05T12:41:31.479Z,7.73
2023-02-05T12:43:39.093Z,7.50
2023-02-05T12:45:51.058Z,7.87
2023-02-05T12:48:07.161Z,8.30
2023-02-05T12:50:26.284Z,7.30
2023-02-05T12:52:41.713Z,7.30
2023-02-05T12:55:02.637Z,6.70
2023-02-05T12:57:08.242Z,7.50
2023-02-05T12:59:16.699Z,6.90
2023-02-05T13:01:24.911Z,7.47
2023-02-05T13:03:36.411Z,7.60
2023-02-05T13:05:42.866Z,7.70
2023-02-05T13:07:49.489Z,8.60
2023-02-05T13:09:56.405Z,8.53
2023-02-05T13:12:04.966Z,7.87
2023-02-05T13:14:13.677Z,8.30
2023-02-05T13:16:19.135Z,7.63
2023-02-05T13:18:24.765Z,8.50
2023-02-05T13:20:50.974Z,9.20
2023-02-05T13:23:23.417Z,9.43
2023-02-05T13:25:48.619Z,9.83
2023-02-05T13:28:14.478Z,9.57
2023-02-05T13:30:22.162Z,9.10
2023-02-05T13:32:31.112Z,10.80
2023-02-05T13:34:34.658Z,9.83
2023-02-05T13:37:12.874Z,10.27
2023-02-05T13:39:34.747Z,9.93
2023-02-05T13:42:04.720Z,10.23
2023-02-05T13:44:37.691Z,9.80
2023-02-05T13:47:19.873Z,9.43
2023-02-05T13:49:59.816Z,10.53
2023-02-05T13:52:20.798Z,9.57
2023-02-05T13:55:02.804Z,10.50
2023-02-05T13:57:25.931Z,10.20
2023-02-05T13:59:36.890Z,9.30
2023-02-05T14:01:43.677Z,9.80
2023-02-05T14:03:57.452Z,10.80
2023-02-05T14:06:00.459Z,12.60
2023-02-05T14:08:05.422Z,12.03
2023-02-05T14:10:24.108Z,12.33
2023-02-05T14:12:30.001Z,11.77
2023-02-05T14:14:35.838Z,11.10
2023-02-05T14:16:38.730Z,11.70
2023-02-05T14:18:49.564Z,10.83
2023-02-05T14:20:52.529Z,11.07
2023-02-05T14:22:57.829Z,10.70
2023-02-05T14:25:02.014Z,11.00
2023-02-05T14:27:05.109Z,11.27
2023-02-05T14:29:42.225Z,10.23
2023-02-05T14:31:53.877Z,10.70
2023-02-05T14:34:40.246Z,11.97
2023-02-05T14:36:46.001Z,12.50
2023-02-05T14:38:53.993Z,11.83
2023-02-05T14:41:06.631Z,11.30
2023-02-05T14:43:16.334Z,10.97
2023-02-05T14:45:21.957Z,11.90
2023-02-05T14:47:28.220Z,13.37
2023-02-05T14:49:38.549Z,13.40
2023-02-05T14:51:49.612Z,12.53
2023-02-05T14:53:57.972Z,12.60
2023-02-05T14:56:01.317Z,12.70
2023-02-05T14:58:06.845Z,13.97
2023-02-05T15:00:25.745Z,13.07
2023-02-05T15:02:59.953Z,12.50
2023-02-05T15:05:06.521Z,12.53
2023-02-05T15:07:15.480Z,12.97
2023-02-05T15:09:24.346Z,12.33
2023-02-05T15:11:37.906Z,12.37
2023-02-05T15:13:40.739Z,12.10
2023-02-05T15:16:03.689Z,12.87
2023-02-05T15:18:15.154Z,13.83
2023-02-05T15:20:27.241Z,14.50
2023-02-05T15:22:35.495Z,17.23
2023-02-05T15:24:38.559Z,16.10
2023-02-05T15:26:47.630Z,15.00
2023-02-05T15:28:58.631Z,14.20
2023-02-05T15:31:15.765Z,12.53
2023-02-05T15:33:29.101Z,13.00
2023-02-05T15:35:42.001Z,11.80
2023-02-05T15:37:49.968Z,12.37
2023-02-05T15:39:56.977Z,12.80
2023-02-05T15:42:02.503Z,12.30
2023-02-05T15:44:05.402Z,12.57
2023-02-05T15:46:12.724Z,12.17
2023-02-05T15:48:19.956Z,13.07
2023-02-05T15:50:24.037Z,13.13
2023-02-05T15:52:30.155Z,12.97
2023-02-05T15:54:36.503Z,13.07
2023-02-05T15:56:42.107Z,13.50
2023-02-05T15:58:50.889Z,13.30
2023-02-05T16:00:56.467Z,13.53
2023-02-05T16:03:01.165Z,14.13
2023-02-05T16:05:16.996Z,14.63
2023-02-05T16:07:24.337Z,13.27
2023-02-05T16:09:29.093Z,13.00
2023-02-05T16:11:33.580Z,13.73
2023-02-05T16:13:36.819Z,14.47
2023-02-05T16:15:42.973Z,14.30
2023-02-05T16:17:48.820Z,13.97
2023-02-05T16:19:55.464Z,16.93
2023-02-05T16:22:02.046Z,14.73
2023-02-05T16:24:10.185Z,13.57
2023-02-05T16:26:18.091Z,15.20
2023-02-05T16:28:25.433Z,14.23
2023-02-05T16:30:34.321Z,15.90
2023-02-05T16:32:39.724Z,14.53
2023-02-05T16:34:44.054Z,14.13
2023-02-05T16:36:50.141Z,18.17
2023-02-05T16:38:55.198Z,16.50
2023-02-05T16:41:02.449Z,14.07
2023-02-05T16:43:21.757Z,12.50
2023-02-05T16:45:29.094Z,13.40
2023-02-05T16:47:32.057Z,13.63
2023-02-05T16:49:34.838Z,12.83
2023-02-05T16:51:52.842Z,14.03
2023-02-05T16:53:55.965Z,13.17
2023-02-05T16:56:10.742Z,13.40
2023-02-05T16:58:19.796Z,13.27
2023-02-05T17:00:25.700Z,14.07
2023-02-05T17:02:40.428Z,14.07
2023-02-05T17:04:43.372Z,13.57
2023-02-05T17:06:46.157Z,14.27
2023-02-05T17:08:55.010Z,14.73
2023-02-05T17:11:00.982Z,13.63
2023-02-05T17:13:05.141Z,14.23
2023-02-05T17:15:33.683Z,14.73
2023-02-05T17:17:49.445Z,13.87
2023-02-05T17:20:15.680Z,13.27
2023-02-05T17:22:20.682Z,13.03
2023-02-05T17:24:26.958Z,13.30
2023-02-05T17:26:33.129Z,12.10
2023-02-05T17:28:43.807Z,13.50
2023-02-05T17:30:49.820Z,13.70
2023-02-05T17:32:52.557Z,14.40
2023-02-05T17:34:55.293Z,14.10
2023-02-05T17:36:58.028Z,15.77
2023-02-05T17:39:00.748Z,15.00
2023-02-05T17:41:21.115Z,16.27
2023-02-05T17:43:25.215Z,16.53
2023-02-05T17:45:32.756Z,17.17
2023-02-05T17:47:35.509Z,18.13
2023-02-05T17:49:38.298Z,18.57
2023-02-05T17:51:42.414Z,17.53
2023-02-05T17:53:45.535Z,17.40
2023-02-05T17:55:48.730Z,17.67
2023-02-05T17:57:51.480Z,19.17
2023-02-05T17:59:56.716Z,16.63
2023-02-05T18:01:59.477Z,17.13
2023-02-05T18:04:02.225Z,16.73
2023-02-05T18:06:05.456Z,17.17
2023-02-05T18:08:08.216Z,19.90
2023-02-05T18:10:14.745Z,23.67
2023-02-05T18:12:17.484Z,22.47
2023-02-05T18:14:20.425Z,20.03
2023-02-05T18:16:25.015Z,19.17
2023-02-05T18:18:27.968Z,19.93
2023-02-05T18:20:30.748Z,22.43
2023-02-05T18:22:34.146Z,21.50
2023-02-05T18:24:37.174Z,22.43
2023-02-05T18:26:39.929Z,22.30
2023-02-05T18:28:42.884Z,19.40
2023-02-05T18:30:45.685Z,20.40
2023-02-05T18:32:50.135Z,20.10
2023-02-05T18:34:53.106Z,19.67
2023-02-05T18:36:55.936Z,23.20
2023-02-05T18:38:58.699Z,19.07
2023-02-05T18:41:09.307Z,18.50
2023-02-05T18:43:13.164Z,23.37
2023-02-05T18:45:16.004Z,21.43
2023-02-05T18:47:18.867Z,22.07
2023-02-05T18:49:23.330Z,22.63
2023-02-05T18:51:26.218Z,21.60
2023-02-05T18:53:29.817Z,24.27
2023-02-05T18:55:35.442Z,23.03
2023-02-05T18:57:38.218Z,24.93
2023-02-05T18:59:41.581Z,20.57
2023-02-05T19:01:44.794Z,21.73
2023-02-05T19:03:47.930Z,22.27
2023-02-05T19:05:51.989Z,22.07
2023-02-05T19:07:54.838Z,22.07
2023-02-05T19:09:58.146Z,22.70
2023-02-05T19:12:00.922Z,24.53
2023-02-05T19:14:07.735Z,23.00
2023-02-05T19:16:12.818Z,21.43
2023-02-05T19:18:15.551Z,21.47
2023-02-05T19:20:18.632Z,25.47
2023-02-05T19:22:23.079Z,25.60
2023-02-05T19:24:25.836Z,24.27
2023-02-05T19:26:30.317Z,22.63
2023-02-05T19:28:33.151Z,27.60
2023-02-05T19:30:37.028Z,27.57
2023-02-05T19:32:40.076Z,31.60
2023-02-05T19:34:43.293Z,28.43
2023-02-05T19:36:46.157Z,28.10
2023-02-05T19:38:50.356Z,30.50
2023-02-05T19:40:53.158Z,28.43
2023-02-05T19:42:56.856Z,26.60
2023-02-05T19:44:59.725Z,30.63
2023-02-05T19:47:02.502Z,25.90
2023-02-05T19:49:08.983Z,27.73
2023-02-05T19:51:14.889Z,28.93
2023-02-05T19:53:18.471Z,29.30
2023-02-05T19:55:22.657Z,25.27
2023-02-05T19:57:25.903Z,27.27
2023-02-05T19:59:29.793Z,26.33
2023-02-05T20:01:33.638Z,30.37
2023-02-05T20:03:36.393Z,27.13
2023-02-05T20:05:39.149Z,26.90
2023-02-05T20:07:55.427Z,20.50
2023-02-05T20:09:58.144Z,20.53
2023-02-05T20:12:02.412Z,25.63
2023-02-05T20:14:05.394Z,22.27
2023-02-05T20:16:10.666Z,25.20
2023-02-05T20:18:13.443Z,25.77
2023-02-05T20:20:32.436Z,28.20
2023-02-05T20:22:35.980Z,22.07
2023-02-05T20:24:38.732Z,25.17
2023-02-05T20:26:41.467Z,24.47
2023-02-05T20:29:01.056Z,23.97
2023-02-05T20:31:24.624Z,26.43
2023-02-05T20:33:27.350Z,27.97
2023-02-05T20:35:30.031Z,26.33
2023-02-05T20:37:36.715Z,26.53
2023-02-05T20:39:42.030Z,26.53
2023-02-05T20:41:45.101Z,26.70
2023-02-05T20:43:49.226Z,24.00
2023-02-05T20:45:52.134Z,20.83
2023-02-05T20:47:54.817Z,25.37
2023-02-05T20:49:57.533Z,29.77
2023-02-05T20:52:00.267Z,26.60
2023-02-05T20:54:03.101Z,21.37
2023-02-05T20:56:07.623Z,24.20
2023-02-05T20:58:10.331Z,27.33
2023-02-05T21:00:15.373Z,26.97
2023-02-05T21:02:19.360Z,25.43
2023-02-05T21:04:22.616Z,25.63
2023-02-05T21:06:30.569Z,30.93
2023-02-05T21:08:33.266Z,27.40
2023-02-05T21:10:36.362Z,23.10
2023-02-05T21:12:39.162Z,26.43
2023-02-05T21:14:43.862Z,26.27
2023-02-05T21:16:47.918Z,25.90
2023-02-05T21:18:51.758Z,24.60
2023-02-05T21:20:55.022Z,23.17
2023-02-05T21:22:57.815Z,24.83
2023-02-05T21:25:00.562Z,25.10
2023-02-05T21:27:03.314Z,23.20
2023-02-05T21:29:07.781Z,24.03
2023-02-05T21:31:10.712Z,22.77
2023-02-05T21:33:14.840Z,23.40
2023-02-05T21:35:17.892Z,23.17
2023-02-05T21:37:20.592Z,27.33
2023-02-05T21:39:23.926Z,37.67
2023-02-05T21:41:27.363Z,23.10
2023-02-05T21:43:30.097Z,24.00
2023-02-05T21:45:32.849Z,21.23
2023-02-05T21:47:35.629Z,21.67
2023-02-05T21:49:39.859Z,21.30
2023-02-05T21:51:43.178Z,24.37
2023-02-05T21:53:46.393Z,23.10
2023-02-05T21:55:49.191Z,24.00
2023-02-05T21:57:51.967Z,26.07
2023-02-05T21:59:54.705Z,22.77
2023-02-05T22:01:57.521Z,22.23
2023-02-05T22:04:02.023Z,25.03
2023-02-05T22:06:07.348Z,23.47
2023-02-05T22:08:11.882Z,22.67
2023-02-05T22:10:14.768Z,26.70
2023-02-05T22:12:17.919Z,24.27
2023-02-05T22:14:20.700Z,24.40
2023-02-05T22:16:25.562Z,23.77
2023-02-05T22:18:28.526Z,26.43
2023-02-05T22:20:31.244Z,24.70
2023-02-05T22:22:36.197Z,26.07
2023-02-05T22:24:38.871Z,23.53
2023-02-05T22:26:42.402Z,26.00
2023-02-05T22:28:45.331Z,23.43
2023-02-05T22:30:48.112Z,25.37
2023-02-05T22:32:50.898Z,24.60
2023-02-05T22:34:54.419Z,24.33
2023-02-05T22:36:57.197Z,25.73
2023-02-05T22:39:03.546Z,22.67
2023-02-05T22:41:08.866Z,23.83
2023-02-05T22:43:11.562Z,25.97
2023-02-05T22:45:14.279Z,26.20
2023-02-05T22:47:16.982Z,23.43
2023-02-05T22:49:19.678Z,22.10
2023-02-05T22:51:24.249Z,22.70
2023-02-05T22:53:27.054Z,25.07
2023-02-05T22:55:31.209Z,27.87
2023-02-05T22:57:34.017Z,23.83
2023-02-05T22:59:38.024Z,20.10
2023-02-05T23:01:41.096Z,25.03
2023-02-05T23:03:45.604Z,22.70
2023-02-05T23:05:48.374Z,20.30
2023-02-05T23:07:52.012Z,21.17
2023-02-05T23:09:54.778Z,22.27
2023-02-05T23:11:59.095Z,21.77
2023-02-05T23:14:04.192Z,22.37
2023-02-05T23:16:12.001Z,22.20
2023-02-05T23:18:14.875Z,23.07
2023-02-05T23:20:17.847Z,23.63
2023-02-05T23:22:20.597Z,24.50
2023-02-05T23:24:23.410Z,23.50
2023-02-05T23:26:28.243Z,24.30
2023-02-05T23:28:32.363Z,19.67
2023-02-05T23:30:35.284Z,24.20
2023-02-05T23:32:38.789Z,22.70
2023-02-05T23:34:41.608Z,24.90
2023-02-05T23:36:44.399Z,25.83
2023-02-05T23:38:49.158Z,25.27
2023-02-05T23:40:52.170Z,22.97
2023-02-05T23:42:54.928Z,26.93
2023-02-05T23:44:59.012Z,25.03
2023-02-05T23:47:01.736Z,22.33
2023-02-05T23:49:04.863Z,25.70
2023-02-05T23:51:07.619Z,23.80
2023-02-05T23:53:10.552Z,22.80
2023-02-05T23:55:13.286Z,23.30
2023-02-05T23:57:16.062Z,22.13
2023-02-05T23:59:19.176Z,24.00
